Time;durP1;ratioP1;P1;durP2;ratioP2;P2;SDS_P1;SDS_P2;PMS_P1;PMS_P2;Temp;Humidity;BMP_temperature;BMP_pressure;BME280_temperature;BME280_humidity;BME280_pressure;Samples;Min_cycle;Max_cycle;Signal;HPM_P1;HPM_P2
2024/02/23 00:03:10;;;;;;;0.53;0.53;;;13.10;43.70;;;;;;10449410;28;20571;-74
2024/02/23 00:08:13;;;;;;;0.50;0.50;;;13.10;43.90;;;;;;10449158;28;20267;-74
2024/02/23 00:13:16;;;;;;;0.60;0.60;;;13.10;43.70;;;;;;10448310;28;20236;-74
2024/02/23 00:18:21;;;;;;;0.50;0.50;;;13.00;43.60;;;;;;10448883;28;20233;-74
2024/02/23 00:23:25;;;;;;;1.00;0.50;;;13.00;43.40;;;;;;10449032;28;20695;-74
2024/02/23 00:28:28;;;;;;;1.57;0.40;;;12.90;43.30;;;;;;10449412;28;20232;-74
2024/02/23 00:33:33;;;;;;;0.50;0.50;;;12.90;43.00;;;;;;10448444;28;20319;-74
2024/02/23 00:38:36;;;;;;;0.60;0.60;;;12.90;42.50;;;;;;10447409;28;20229;-74
2024/02/23 00:43:40;;;;;;;0.53;0.50;;;12.90;42.50;;;;;;10447922;28;20286;-74
2024/02/23 00:48:44;;;;;;;0.57;0.57;;;12.90;42.50;;;;;;10447734;28;20228;-74
2024/02/23 00:53:48;;;;;;;0.50;0.50;;;12.90;42.50;;;;;;10447823;28;20252;-74
2024/02/23 00:58:51;;;;;;;0.50;0.50;;;12.80;42.40;;;;;;10447617;28;20965;-74
2024/02/23 01:03:56;;;;;;;0.60;0.60;;;12.70;42.30;;;;;;10447446;28;20248;-74
2024/02/23 01:08:59;;;;;;;0.50;0.50;;;12.60;42.20;;;;;;10440737;28;20236;-74
2024/02/23 01:14:02;;;;;;;0.50;0.50;;;12.60;42.20;;;;;;10449873;28;20707;-74
2024/02/23 01:19:07;;;;;;;0.60;0.47;;;12.60;42.30;;;;;;10446811;28;20233;-74
2024/02/23 01:24:10;;;;;;;0.50;0.50;;;12.50;42.10;;;;;;10446305;28;20239;-73
2024/02/23 01:29:16;;;;;;;0.50;0.50;;;12.50;41.70;;;;;;10446290;28;20315;-74
2024/02/23 01:34:21;;;;;;;0.50;0.50;;;12.40;42.10;;;;;;10448833;28;20231;-73
2024/02/23 01:39:24;;;;;;;0.50;0.50;;;12.30;41.60;;;;;;10438403;28;20603;-74
2024/02/23 01:44:27;;;;;;;0.40;0.40;;;12.20;41.70;;;;;;10440183;28;20279;-74
2024/02/23 01:49:33;;;;;;;0.50;0.50;;;12.10;41.80;;;;;;10442085;28;20232;-74
2024/02/23 01:54:37;;;;;;;0.40;0.40;;;12.10;41.00;;;;;;10444861;28;20240;-74
2024/02/23 01:59:44;;;;;;;0.40;0.40;;;12.00;40.10;;;;;;10439732;28;20300;-73
2024/02/23 02:04:49;;;;;;;0.57;0.50;;;11.70;39.70;;;;;;10445269;28;20213;-73
2024/02/23 02:09:52;;;;;;;0.43;0.40;;;11.40;39.80;;;;;;10444708;28;20304;-74
2024/02/23 02:14:56;;;;;;;0.40;0.40;;;11.00;40.20;;;;;;10444108;28;20225;-73
2024/02/23 02:20:05;;;;;;;0.50;0.40;;;10.70;40.50;;;;;;10436429;28;20235;-74
2024/02/23 02:25:09;;;;;;;0.30;0.30;;;10.40;40.70;;;;;;10444057;28;20840;-74
2024/02/23 02:30:13;;;;;;;1.27;0.40;;;10.20;41.10;;;;;;10443880;28;20229;-73
2024/02/23 02:35:17;;;;;;;0.40;0.40;;;10.10;40.90;;;;;;10443378;28;20225;-73
2024/02/23 02:40:21;;;;;;;0.43;0.40;;;9.90;42.00;;;;;;10443769;28;20221;-73
2024/02/23 02:45:24;;;;;;;1.40;0.40;;;9.80;42.20;;;;;;10442916;28;20804;-74
2024/02/23 02:50:28;;;;;;;0.40;0.40;;;9.60;42.30;;;;;;10443484;28;20308;-73
2024/02/23 02:55:32;;;;;;;0.30;0.30;;;9.50;43.20;;;;;;10443722;28;20229;-73
2024/02/23 03:00:35;;;;;;;0.73;0.50;;;9.40;42.40;;;;;;10444404;28;20243;-73
2024/02/23 03:05:39;;;;;;;0.70;0.40;;;9.40;42.80;;;;;;10443201;28;20228;-73
2024/02/23 03:10:43;;;;;;;0.50;0.40;;;9.40;42.90;;;;;;10437222;28;20232;-73
2024/02/23 03:15:46;;;;;;;0.40;0.40;;;9.40;42.90;;;;;;10443125;28;20298;-73
2024/02/23 03:20:50;;;;;;;0.47;0.40;;;9.40;42.90;;;;;;10443118;28;20256;-73
2024/02/23 03:25:54;;;;;;;0.40;0.40;;;9.30;43.00;;;;;;10442742;28;20229;-73
2024/02/23 03:30:57;;;;;;;0.97;0.40;;;9.40;42.90;;;;;;10442493;28;20255;-73
2024/02/23 03:36:02;;;;;;;1.00;0.60;;;9.30;42.90;;;;;;10442460;28;20311;-73
2024/02/23 03:41:06;;;;;;;0.60;0.60;;;9.30;43.00;;;;;;10438118;28;20227;-73
2024/02/23 03:46:11;;;;;;;0.50;0.50;;;9.40;42.90;;;;;;10443837;28;20221;-73
2024/02/23 03:51:16;;;;;;;0.73;0.50;;;9.40;42.80;;;;;;10450030;28;20255;-73
2024/02/23 03:56:19;;;;;;;0.90;0.70;;;9.50;42.70;;;;;;10449918;28;20225;-73
2024/02/23 04:01:22;;;;;;;1.60;1.50;;;9.50;42.70;;;;;;10449688;28;20233;-73
2024/02/23 04:06:27;;;;;;;1.10;0.87;;;9.50;42.70;;;;;;10448541;28;20229;-73
2024/02/23 04:11:30;;;;;;;1.27;0.80;;;9.50;42.70;;;;;;10449447;28;20239;-73
2024/02/23 04:16:33;;;;;;;0.63;0.63;;;9.50;42.60;;;;;;10448863;28;20320;-73
2024/02/23 04:21:39;;;;;;;1.67;0.60;;;9.40;42.60;;;;;;10445983;28;20241;-73
2024/02/23 04:26:42;;;;;;;0.50;0.50;;;9.40;42.40;;;;;;10448628;28;20315;-73
2024/02/23 04:31:45;;;;;;;0.50;0.40;;;9.40;42.60;;;;;;10448223;28;20786;-73
2024/02/23 04:36:50;;;;;;;0.60;0.40;;;9.40;42.60;;;;;;10445503;28;20239;-73
2024/02/23 04:41:53;;;;;;;0.60;0.40;;;9.40;42.30;;;;;;10447781;28;20247;-73
2024/02/23 04:46:56;;;;;;;0.43;0.43;;;9.50;42.40;;;;;;10447767;28;20371;-73
2024/02/23 04:52:01;;;;;;;0.73;0.50;;;9.50;42.30;;;;;;10447447;28;20274;-73
2024/02/23 04:57:04;;;;;;;0.47;0.47;;;9.50;42.20;;;;;;10441341;28;20221;-73
2024/02/23 05:02:07;;;;;;;0.73;0.40;;;9.40;42.20;;;;;;10449254;28;20224;-73
2024/02/23 05:07:13;;;;;;;0.40;0.40;;;9.40;42.20;;;;;;10446679;28;20248;-73
2024/02/23 05:12:16;;;;;;;0.33;0.30;;;9.40;42.30;;;;;;10444351;28;20227;-73
2024/02/23 05:17:19;;;;;;;0.40;0.40;;;9.30;42.30;;;;;;10446009;28;20240;-73
2024/02/23 05:22:24;;;;;;;0.47;0.40;;;9.30;42.40;;;;;;10443391;28;20251;-73
2024/02/23 05:27:27;;;;;;;0.40;0.40;;;9.30;42.50;;;;;;10446029;28;20225;-74
2024/02/23 05:32:30;;;;;;;0.53;0.53;;;9.30;42.50;;;;;;10443824;28;20237;-73
2024/02/23 05:37:36;;;;;;;0.50;0.50;;;9.40;42.60;;;;;;10442063;28;20237;-73
2024/02/23 05:42:39;;;;;;;0.50;0.50;;;9.30;42.40;;;;;;10444606;28;20241;-73
2024/02/23 05:47:43;;;;;;;1.17;1.07;;;9.30;42.40;;;;;;10445093;28;20723;-73
2024/02/23 05:52:53;;;;;;;2.10;1.20;;;9.30;42.40;;;;;;10439130;28;20599;-73
2024/02/23 05:57:56;;;;;;;0.90;0.90;;;9.30;42.50;;;;;;10444606;28;20233;-74
2024/02/23 06:03:01;;;;;;;2.53;2.33;;;9.30;42.40;;;;;;10444000;28;20241;-73
2024/02/23 06:08:07;;;;;;;1.30;1.20;;;9.30;42.40;;;;;;10443844;28;20255;-73
2024/02/23 06:13:11;;;;;;;1.40;1.30;;;9.40;42.30;;;;;;10444512;28;20229;-73
2024/02/23 06:18:15;;;;;;;0.80;0.80;;;9.30;42.30;;;;;;10435147;28;20227;-74
2024/02/23 06:23:21;;;;;;;1.30;1.20;;;9.30;42.30;;;;;;10438384;28;20232;-74
2024/02/23 06:28:25;;;;;;;0.60;0.60;;;9.30;42.40;;;;;;10440675;28;20236;-73
2024/02/23 06:33:29;;;;;;;1.33;1.20;;;9.30;42.30;;;;;;10436953;28;20267;-74
2024/02/23 06:38:34;;;;;;;1.30;1.20;;;9.30;42.30;;;;;;10435150;28;20229;-74
2024/02/23 06:43:37;;;;;;;1.20;1.10;;;9.30;42.40;;;;;;10435149;28;20247;-74
2024/02/23 06:48:42;;;;;;;0.80;0.60;;;9.40;42.40;;;;;;10437400;28;20247;-75
2024/02/23 06:53:47;;;;;;;0.70;0.70;;;9.40;42.40;;;;;;10432432;28;20229;-74
2024/02/23 06:58:50;;;;;;;1.37;0.90;;;9.40;42.30;;;;;;10433645;28;20239;-74
2024/02/23 07:03:53;;;;;;;1.10;1.10;;;9.40;42.40;;;;;;10432755;28;20225;-74
2024/02/23 07:08:57;;;;;;;0.70;0.70;;;9.50;42.40;;;;;;10433065;28;20247;-75
2024/02/23 07:14:01;;;;;;;0.50;0.50;;;9.60;42.40;;;;;;10432086;28;20239;-74
2024/02/23 07:19:04;;;;;;;1.03;0.67;;;9.60;42.40;;;;;;10441591;28;20233;-75
2024/02/23 07:24:09;;;;;;;1.10;1.00;;;9.70;42.50;;;;;;10445760;28;20228;-74
2024/02/23 07:29:12;;;;;;;1.20;0.80;;;9.70;42.50;;;;;;10444690;28;20354;-74
2024/02/23 07:34:19;;;;;;;0.93;0.90;;;9.80;42.30;;;;;;10444631;28;20275;-74
2024/02/23 07:39:24;;;;;;;2.47;1.10;;;9.90;42.40;;;;;;10441878;28;20236;-74
2024/02/23 07:44:27;;;;;;;2.30;1.20;;;10.00;41.50;;;;;;10449374;28;20231;-74
2024/02/23 07:49:30;;;;;;;2.90;2.70;;;10.00;41.40;;;;;;10449268;28;20238;-74
2024/02/23 07:54:35;;;;;;;2.20;2.00;;;10.10;41.30;;;;;;10445087;28;20316;-74
2024/02/23 07:59:38;;;;;;;2.03;1.93;;;10.10;41.30;;;;;;10446809;28;20312;-74
2024/02/23 08:04:42;;;;;;;1.60;1.50;;;10.20;41.20;;;;;;10448495;28;20236;-73
2024/02/23 08:09:46;;;;;;;1.30;1.20;;;10.20;41.10;;;;;;10439352;28;20726;-74
2024/02/23 08:14:53;;;;;;;1.20;1.10;;;10.20;41.40;;;;;;10446595;28;20236;-74
2024/02/23 08:19:56;;;;;;;0.80;0.80;;;10.30;41.20;;;;;;10448052;28;20327;-74
2024/02/23 08:25:01;;;;;;;1.30;1.00;;;10.30;41.00;;;;;;10445634;28;20249;-73
2024/02/23 08:30:06;;;;;;;0.97;0.97;;;10.30;40.90;;;;;;10445569;28;20941;-74
2024/02/23 08:35:09;;;;;;;1.10;1.10;;;10.30;41.00;;;;;;10440266;28;20255;-74
2024/02/23 08:40:14;;;;;;;2.10;2.00;;;10.30;41.00;;;;;;10447633;28;20282;-74
2024/02/23 08:45:17;;;;;;;5.83;5.27;;;10.30;41.10;;;;;;10452307;28;20619;-74
2024/02/23 08:50:20;;;;;;;4.10;3.20;;;10.30;41.00;;;;;;10447527;28;20239;-74
2024/02/23 08:55:25;;;;;;;2.20;1.30;;;10.40;41.10;;;;;;10444853;28;20259;-74
2024/02/23 09:00:28;;;;;;;0.87;0.70;;;10.40;41.00;;;;;;10441706;28;20318;-74
2024/02/23 09:05:31;;;;;;;1.00;1.00;;;10.40;40.80;;;;;;10446308;28;20370;-74
2024/02/23 09:10:36;;;;;;;1.67;1.57;;;10.30;40.90;;;;;;10446238;28;20324;-74
2024/02/23 09:15:39;;;;;;;1.70;1.40;;;10.30;41.00;;;;;;10444569;28;20275;-74
2024/02/23 09:20:42;;;;;;;1.53;1.43;;;10.20;40.90;;;;;;10438899;28;20225;-74
2024/02/23 09:25:47;;;;;;;1.60;1.50;;;10.20;41.00;;;;;;10444158;28;20860;-74
2024/02/23 09:30:50;;;;;;;1.43;1.33;;;10.20;41.20;;;;;;10445269;28;20319;-73
2024/02/23 09:35:53;;;;;;;1.53;1.43;;;10.10;41.10;;;;;;10443095;28;20244;-74
2024/02/23 09:40:58;;;;;;;1.80;1.60;;;10.10;41.20;;;;;;10443431;28;20232;-74
2024/02/23 09:46:01;;;;;;;1.20;1.10;;;10.00;41.20;;;;;;10438237;28;20289;-73
2024/02/23 09:51:06;;;;;;;1.17;1.07;;;10.00;41.20;;;;;;10444379;28;20248;-73
2024/02/23 09:56:11;;;;;;;1.50;1.40;;;10.00;41.00;;;;;;10436873;28;20235;-73
2024/02/23 10:01:20;;;;;;;1.60;1.40;;;10.00;41.20;;;;;;10437407;28;20543;-73
2024/02/23 10:06:23;;;;;;;2.23;1.40;;;9.90;42.20;;;;;;10444402;28;20613;-73
2024/02/23 10:11:27;;;;;;;2.43;1.10;;;9.90;42.20;;;;;;10444195;28;20229;-73
2024/02/23 10:16:31;;;;;;;1.30;1.20;;;9.90;42.00;;;;;;10440166;28;20252;-73
2024/02/23 10:21:34;;;;;;;1.77;1.20;;;9.90;42.10;;;;;;10443081;28;20332;-73
2024/02/23 10:26:41;;;;;;;2.63;0.90;;;9.90;42.20;;;;;;10440306;28;20224;-73
2024/02/23 10:31:49;;;;;;;2.00;1.00;;;9.90;42.20;;;;;;10447374;28;20225;-73
2024/02/23 10:36:55;;;;;;;2.43;1.07;;;10.00;41.20;;;;;;10438858;28;20592;-73
2024/02/23 10:42:04;;;;;;;0.80;0.80;;;10.00;41.00;;;;;;10440494;28;20286;-73
2024/02/23 10:47:08;;;;;;;1.37;0.90;;;10.00;40.60;;;;;;10442180;28;20213;-73
2024/02/23 10:52:15;;;;;;;1.03;0.80;;;10.00;40.80;;;;;;10442614;28;20759;-73
2024/02/23 10:57:19;;;;;;;1.40;0.90;;;10.00;40.80;;;;;;10445234;28;20331;-73
2024/02/23 11:02:25;;;;;;;1.00;0.90;;;10.00;40.80;;;;;;10451600;28;20302;-73
2024/02/23 11:07:31;;;;;;;1.30;0.90;;;10.00;40.30;;;;;;10450626;28;20754;-73
2024/02/23 11:12:36;;;;;;;1.30;1.00;;;10.00;40.00;;;;;;10451306;28;20224;-73
2024/02/23 11:17:39;;;;;;;1.57;1.10;;;10.10;40.30;;;;;;10448959;28;20262;-73
2024/02/23 11:22:43;;;;;;;1.60;1.30;;;10.10;40.70;;;;;;10444710;28;20229;-73
2024/02/23 11:27:51;;;;;;;1.80;1.10;;;10.10;40.50;;;;;;10447884;28;20259;-73
2024/02/23 11:33:00;;;;;;;1.27;1.10;;;10.20;40.20;;;;;;10440766;28;20247;-73
2024/02/23 11:38:06;;;;;;;1.70;1.00;;;10.20;40.10;;;;;;10449934;28;20255;-73
2024/02/23 11:43:11;;;;;;;2.20;0.97;;;10.20;40.10;;;;;;10449592;28;20324;-74
2024/02/23 11:48:14;;;;;;;1.60;1.00;;;10.20;40.10;;;;;;10449803;28;20225;-74
2024/02/23 11:53:19;;;;;;;2.07;0.90;;;10.20;40.10;;;;;;10445003;28;20240;-75
2024/02/23 11:58:23;;;;;;;2.23;1.03;;;10.20;40.10;;;;;;10438053;28;20240;-73
2024/02/23 12:03:27;;;;;;;1.17;0.83;;;10.20;39.90;;;;;;10439549;28;20225;-73
2024/02/23 12:08:37;;;;;;;1.60;1.00;;;10.20;40.10;;;;;;10436935;28;20569;-73
2024/02/23 12:13:44;;;;;;;3.07;1.50;;;10.20;40.10;;;;;;10439254;28;20248;-73
2024/02/23 12:18:55;;;;;;;3.17;1.47;;;10.20;40.10;;;;;;10429243;28;20237;-74
2024/02/23 12:23:58;;;;;;;1.07;0.97;;;10.30;38.80;;;;;;10440203;28;20740;-75
2024/02/23 12:29:03;;;;;;;2.37;1.13;;;10.30;39.50;;;;;;10443681;28;20458;-73
2024/02/23 12:34:07;;;;;;;2.07;1.70;;;10.20;38.80;;;;;;10448146;28;20237;-74
2024/02/23 12:39:11;;;;;;;1.40;1.17;;;10.30;39.40;;;;;;10447351;28;20252;-73
2024/02/23 12:44:15;;;;;;;3.00;1.43;;;10.20;38.70;;;;;;10447127;28;20310;-73
2024/02/23 12:49:18;;;;;;;2.47;1.23;;;10.20;38.30;;;;;;10446716;28;20233;-73
2024/02/23 12:54:22;;;;;;;1.60;1.37;;;10.20;38.80;;;;;;10448613;28;20237;-73
2024/02/23 12:59:26;;;;;;;2.20;1.30;;;10.10;39.40;;;;;;10448338;28;20229;-73
2024/02/23 13:04:32;;;;;;;3.23;1.67;;;10.10;38.60;;;;;;10448275;28;20233;-73
2024/02/23 13:09:35;;;;;;;3.97;1.70;;;10.10;38.80;;;;;;10447790;28;20233;-75
2024/02/23 13:14:40;;;;;;;1.63;1.13;;;10.20;38.80;;;;;;10447504;28;20239;-74
2024/02/23 13:19:43;;;;;;;2.80;1.50;;;10.20;38.30;;;;;;10447096;28;20921;-73
2024/02/23 13:24:58;;;;;;;2.03;1.40;;;10.20;38.60;;;;;;10406481;28;20723;-73
2024/02/23 13:30:03;;;;;;;3.97;2.80;;;10.20;38.50;;;;;;10440460;28;20256;-73
2024/02/23 13:35:08;;;;;;;4.57;2.47;;;10.30;38.00;;;;;;10443625;28;20244;-72
2024/02/23 13:40:12;;;;;;;2.47;1.50;;;10.30;38.10;;;;;;10446204;28;20241;-72
2024/02/23 13:45:17;;;;;;;3.33;1.40;;;10.40;38.20;;;;;;10445999;28;20217;-72
2024/02/23 13:50:21;;;;;;;9.67;8.80;;;10.40;38.00;;;;;;10445779;28;20232;-72
2024/02/23 13:55:25;;;;;;;2.83;2.57;;;10.40;38.20;;;;;;10442020;28;20233;-72
2024/02/23 14:00:29;;;;;;;3.27;2.40;;;10.40;38.20;;;;;;10444418;28;20240;-72
2024/02/23 14:05:33;;;;;;;4.83;2.70;;;10.40;38.10;;;;;;10452705;28;20232;-73
2024/02/23 14:10:36;;;;;;;3.43;3.07;;;10.40;38.40;;;;;;10444987;28;20239;-72
2024/02/23 14:15:40;;;;;;;2.57;2.10;;;10.30;38.50;;;;;;10444695;28;20235;-72
2024/02/23 14:20:44;;;;;;;2.57;1.93;;;10.20;38.00;;;;;;10441860;28;20243;-74
2024/02/23 14:25:47;;;;;;;1.40;1.30;;;10.20;38.30;;;;;;10444680;28;20247;-74
2024/02/23 14:30:52;;;;;;;1.87;1.10;;;10.20;38.40;;;;;;10443185;28;20236;-75
2024/02/23 14:35:56;;;;;;;1.10;1.00;;;10.10;38.10;;;;;;10429138;28;20738;-73
2024/02/23 14:41:04;;;;;;;0.80;0.80;;;10.10;38.10;;;;;;10442885;28;20696;-75
2024/02/23 14:46:09;;;;;;;1.13;0.90;;;10.10;38.10;;;;;;10430504;28;20708;-73
2024/02/23 14:51:13;;;;;;;1.13;0.77;;;10.10;37.60;;;;;;10441518;28;20229;-73
2024/02/23 14:56:16;;;;;;;0.50;0.50;;;10.10;38.10;;;;;;10440257;28;20256;-74
2024/02/23 15:01:21;;;;;;;0.80;0.80;;;10.10;37.80;;;;;;10438433;28;21286;-74
2024/02/23 15:06:24;;;;;;;0.90;0.70;;;10.00;37.60;;;;;;10435366;28;20248;-76
2024/02/23 15:11:27;;;;;;;1.23;0.80;;;10.00;37.80;;;;;;10438045;28;20237;-77
2024/02/23 15:16:32;;;;;;;0.80;0.80;;;10.00;37.60;;;;;;10437178;28;20352;-76
2024/02/23 15:21:39;;;;;;;1.07;0.70;;;10.00;37.50;;;;;;10433072;28;20331;-77
2024/02/23 15:26:44;;;;;;;0.50;0.50;;;10.00;37.60;;;;;;10437621;28;20221;-77
2024/02/23 15:31:48;;;;;;;0.70;0.70;;;10.00;37.70;;;;;;10435110;28;20303;-76
2024/02/23 15:36:52;;;;;;;1.10;1.00;;;10.00;37.80;;;;;;10428365;28;20217;-76
2024/02/23 15:41:55;;;;;;;3.03;0.83;;;10.00;37.40;;;;;;10442454;28;20782;-76
2024/02/23 15:46:59;;;;;;;1.30;0.60;;;10.00;37.40;;;;;;10445886;28;20711;-74
2024/02/23 15:52:03;;;;;;;1.17;1.00;;;10.00;37.10;;;;;;10447201;28;20236;-74
2024/02/23 15:57:06;;;;;;;3.87;0.90;;;10.00;37.50;;;;;;10449375;28;20741;-76
2024/02/23 16:02:13;;;;;;;1.60;1.50;;;9.90;38.40;;;;;;10449299;28;20224;-76
2024/02/23 16:07:16;;;;;;;1.73;1.50;;;9.90;38.40;;;;;;10442231;28;20298;-76
2024/02/23 16:12:19;;;;;;;1.60;0.90;;;9.90;38.60;;;;;;10444069;28;20651;-75
2024/02/23 16:17:24;;;;;;;1.93;1.50;;;9.80;38.40;;;;;;10448277;28;20252;-76
2024/02/23 16:22:27;;;;;;;1.27;1.00;;;9.70;38.50;;;;;;10447370;28;20725;-76
2024/02/23 16:27:31;;;;;;;2.47;2.27;;;9.70;38.70;;;;;;10449295;28;20298;-75
2024/02/23 16:32:35;;;;;;;1.53;1.40;;;9.60;38.70;;;;;;10433065;28;20232;-77
2024/02/23 16:37:40;;;;;;;2.33;1.10;;;9.50;38.80;;;;;;10443170;28;20228;-77
2024/02/23 16:42:43;;;;;;;1.73;1.50;;;9.40;38.70;;;;;;10441904;28;20248;-77
2024/02/23 16:47:49;;;;;;;1.40;1.30;;;9.40;38.80;;;;;;10440981;28;20224;-77
2024/02/23 16:52:53;;;;;;;4.03;2.63;;;9.30;38.50;;;;;;10444722;28;20319;-77
2024/02/23 16:57:57;;;;;;;1.47;1.13;;;9.30;38.60;;;;;;10442240;28;20225;-77
2024/02/23 17:03:01;;;;;;;2.60;2.40;;;9.30;38.60;;;;;;10444504;28;20246;-77
2024/02/23 17:08:05;;;;;;;1.63;1.20;;;9.20;38.10;;;;;;10438269;28;20691;-77
2024/02/23 17:13:08;;;;;;;1.03;0.90;;;9.20;38.30;;;;;;10443220;28;20231;-78
2024/02/23 17:18:13;;;;;;;0.73;0.73;;;9.10;38.30;;;;;;10441553;28;20752;-77
2024/02/23 17:23:19;;;;;;;1.43;0.90;;;9.00;38.10;;;;;;10440133;28;20225;-77
2024/02/23 17:28:22;;;;;;;0.70;0.70;;;9.00;38.40;;;;;;10435510;28;20228;-77
2024/02/23 17:33:27;;;;;;;0.77;0.63;;;8.90;38.40;;;;;;10440565;28;20232;-78
2024/02/23 17:38:31;;;;;;;1.53;0.70;;;8.90;38.40;;;;;;10440351;28;20255;-75
2024/02/23 17:43:34;;;;;;;1.40;1.30;;;8.90;38.60;;;;;;10437240;28;20229;-74
2024/02/23 17:48:39;;;;;;;0.70;0.70;;;8.80;38.30;;;;;;10439741;28;20228;-77
2024/02/23 17:53:42;;;;;;;0.60;0.60;;;8.70;38.40;;;;;;10442834;28;20723;-77
2024/02/23 17:58:46;;;;;;;1.13;1.03;;;8.70;38.60;;;;;;10440793;28;20255;-77
2024/02/23 18:03:51;;;;;;;1.13;1.10;;;8.60;39.30;;;;;;10440940;28;20594;-77
2024/02/23 18:08:54;;;;;;;0.97;0.87;;;8.60;38.60;;;;;;10438504;28;20220;-77
2024/02/23 18:13:58;;;;;;;0.80;0.80;;;8.50;38.80;;;;;;10437304;28;20278;-77
2024/02/23 18:19:03;;;;;;;1.00;0.70;;;8.40;38.90;;;;;;10437159;28;20732;-77
2024/02/23 18:24:07;;;;;;;1.70;1.60;;;8.40;39.00;;;;;;10439393;28;20754;-77
2024/02/23 18:29:10;;;;;;;1.20;1.10;;;8.40;39.30;;;;;;10437493;28;20225;-77
2024/02/23 18:34:15;;;;;;;3.10;1.80;;;8.30;39.50;;;;;;10436362;28;20249;-77
2024/02/23 18:39:19;;;;;;;0.83;0.83;;;8.30;39.50;;;;;;10431404;28;20236;-77
2024/02/23 18:44:22;;;;;;;1.27;1.00;;;8.30;39.50;;;;;;10436721;28;20883;-77
2024/02/23 18:49:29;;;;;;;0.70;0.70;;;8.20;39.40;;;;;;10430169;28;20228;-77
2024/02/23 18:54:36;;;;;;;0.87;0.83;;;8.20;39.40;;;;;;10430986;28;20316;-75
2024/02/23 18:59:39;;;;;;;1.60;1.50;;;8.20;39.40;;;;;;10432615;28;20241;-74
2024/02/23 19:04:44;;;;;;;2.60;2.23;;;8.20;39.40;;;;;;10437194;28;20237;-77
2024/02/23 19:09:48;;;;;;;2.70;2.03;;;8.20;39.40;;;;;;10434746;28;20232;-77
2024/02/23 19:14:51;;;;;;;1.73;1.30;;;8.20;39.40;;;;;;10435538;28;20722;-77
2024/02/23 19:19:56;;;;;;;1.10;1.10;;;8.20;39.40;;;;;;10444043;28;20232;-77
2024/02/23 19:24:59;;;;;;;2.23;1.60;;;8.10;39.30;;;;;;10446616;28;20217;-76
2024/02/23 19:30:04;;;;;;;1.30;1.10;;;8.10;39.30;;;;;;10446943;28;20328;-77
2024/02/23 19:35:09;;;;;;;1.80;1.70;;;8.20;39.40;;;;;;10444263;28;20248;-77
2024/02/23 19:40:18;;;;;;;1.20;1.10;;;8.10;39.40;;;;;;10445067;28;20279;-76
2024/02/23 19:45:22;;;;;;;2.20;2.00;;;8.10;39.30;;;;;;10445558;28;20238;-77
2024/02/23 19:50:28;;;;;;;1.90;1.80;;;8.10;39.30;;;;;;10442756;28;20276;-77
2024/02/23 19:55:31;;;;;;;2.90;2.70;;;8.00;39.30;;;;;;10446657;28;20232;-76
2024/02/23 20:00:34;;;;;;;2.17;1.97;;;8.10;39.30;;;;;;10443703;28;20315;-76
2024/02/23 20:05:39;;;;;;;4.53;3.40;;;8.10;39.30;;;;;;10442832;28;20242;-77
2024/02/23 20:10:43;;;;;;;2.93;2.73;;;8.10;39.30;;;;;;10442695;28;20237;-77
2024/02/23 20:15:47;;;;;;;4.10;3.80;;;8.10;39.30;;;;;;10441028;28;20237;-77
2024/02/23 20:20:52;;;;;;;5.07;4.67;;;8.20;39.40;;;;;;10443122;28;20263;-77
2024/02/23 20:25:55;;;;;;;7.63;6.93;;;8.30;39.50;;;;;;10442211;28;20229;-77
2024/02/23 20:31:02;;;;;;;2.07;1.90;;;8.40;39.60;;;;;;10439848;28;20235;-77
2024/02/23 20:36:07;;;;;;;4.20;3.70;;;8.40;39.60;;;;;;10434682;28;20256;-77
2024/02/23 20:41:11;;;;;;;1.70;1.60;;;8.50;39.30;;;;;;10442268;28;20228;-77
2024/02/23 20:46:14;;;;;;;3.70;3.17;;;8.50;39.20;;;;;;10440822;28;20229;-77
2024/02/23 20:51:19;;;;;;;8.47;7.67;;;8.40;39.30;;;;;;10437247;28;20228;-76
2024/02/23 20:56:22;;;;;;;4.83;3.60;;;8.40;39.50;;;;;;10425986;28;20237;-74
2024/02/23 21:01:25;;;;;;;1.30;1.10;;;8.40;39.50;;;;;;10427421;28;20672;-77
2024/02/23 21:06:30;;;;;;;1.57;0.90;;;8.40;39.50;;;;;;10440178;28;20317;-77
2024/02/23 21:11:34;;;;;;;2.03;1.13;;;8.40;39.30;;;;;;10443903;28;20762;-77
2024/02/23 21:16:37;;;;;;;2.00;0.90;;;8.40;39.20;;;;;;10438123;28;20236;-77
2024/02/23 21:21:43;;;;;;;0.97;0.97;;;8.40;39.50;;;;;;10433116;28;20233;-77
2024/02/23 21:26:49;;;;;;;1.00;0.90;;;8.40;39.50;;;;;;10438852;28;20236;-77
2024/02/23 21:31:52;;;;;;;1.10;1.00;;;8.50;39.50;;;;;;10439380;28;20233;-77
2024/02/23 21:36:56;;;;;;;0.83;0.83;;;8.50;39.40;;;;;;10440599;28;20622;-77
2024/02/23 21:42:02;;;;;;;1.37;0.90;;;8.50;39.00;;;;;;10433418;28;20230;-77
2024/02/23 21:47:05;;;;;;;1.30;0.97;;;8.50;39.00;;;;;;10431069;28;20695;-75
2024/02/23 21:52:10;;;;;;;1.17;1.07;;;8.50;39.30;;;;;;10431946;28;20229;-75
2024/02/23 21:57:14;;;;;;;0.90;0.90;;;8.50;39.10;;;;;;10435826;28;20328;-75
2024/02/23 22:02:17;;;;;;;0.73;0.73;;;8.50;39.20;;;;;;10436279;28;20773;-75
2024/02/23 22:07:22;;;;;;;0.87;0.80;;;8.50;39.00;;;;;;10436337;28;20233;-75
2024/02/23 22:12:27;;;;;;;0.60;0.60;;;8.50;39.00;;;;;;10435769;28;20237;-75
2024/02/23 22:17:30;;;;;;;1.00;0.70;;;8.50;39.00;;;;;;10423142;28;20232;-75
2024/02/23 22:22:35;;;;;;;0.70;0.70;;;8.50;39.00;;;;;;10432850;28;20260;-75
2024/02/23 22:27:39;;;;;;;0.73;0.73;;;8.50;39.00;;;;;;10433079;28;20238;-75
2024/02/23 22:32:43;;;;;;;0.67;0.67;;;8.50;38.90;;;;;;10436165;28;20236;-75
2024/02/23 22:37:48;;;;;;;0.80;0.80;;;8.50;38.90;;;;;;10433922;28;20236;-75
2024/02/23 22:42:52;;;;;;;1.53;1.00;;;8.40;38.90;;;;;;10433865;28;20240;-75
2024/02/23 22:47:55;;;;;;;0.97;0.90;;;8.40;39.10;;;;;;10437172;28;20235;-75
2024/02/23 22:53:00;;;;;;;0.90;0.90;;;8.40;39.20;;;;;;10435388;28;20259;-75
2024/02/23 22:58:04;;;;;;;0.70;0.70;;;8.40;39.10;;;;;;10435952;28;20327;-75
2024/02/23 23:03:07;;;;;;;0.80;0.80;;;8.40;39.10;;;;;;10437881;28;20233;-75
2024/02/23 23:08:11;;;;;;;1.20;1.10;;;8.40;39.10;;;;;;10439053;28;20232;-75
2024/02/23 23:13:15;;;;;;;1.83;1.27;;;8.40;39.10;;;;;;10435964;28;20320;-76
2024/02/23 23:18:18;;;;;;;2.67;1.70;;;8.40;39.00;;;;;;10437150;28;20315;-75
2024/02/23 23:23:23;;;;;;;2.70;2.03;;;8.40;39.10;;;;;;10435399;28;20840;-75
2024/02/23 23:28:26;;;;;;;1.93;1.60;;;8.40;39.10;;;;;;10432412;28;20232;-75
2024/02/23 23:33:29;;;;;;;2.13;1.73;;;8.40;38.90;;;;;;10441046;28;20251;-75
2024/02/23 23:38:34;;;;;;;2.30;1.50;;;8.40;39.60;;;;;;10436057;28;20612;-75
2024/02/23 23:43:38;;;;;;;1.30;1.20;;;8.40;38.80;;;;;;10429893;28;20224;-76
2024/02/23 23:48:41;;;;;;;1.00;1.00;;;8.30;38.80;;;;;;10436896;28;20315;-75
2024/02/23 23:53:47;;;;;;;1.47;1.20;;;8.30;38.80;;;;;;10428102;28;20811;-75
2024/02/23 23:58:50;;;;;;;1.10;1.00;;;8.20;38.70;;;;;;10435337;28;20734;-75
